createdAt,value
2018-09-11T00:02:11.800Z,3.43
2018-09-11T00:04:40.281Z,2.70
2018-09-11T00:07:09.081Z,3.10
2018-09-11T00:09:37.584Z,2.50
2018-09-11T00:12:06.120Z,2.83
2018-09-11T00:14:35.312Z,3.07
2018-09-11T00:17:03.824Z,3.07
2018-09-11T00:19:32.285Z,2.80
2018-09-11T00:22:01.468Z,3.43
2018-09-11T00:24:30.009Z,2.60
2018-09-11T00:27:02.327Z,2.80
2018-09-11T00:29:31.233Z,2.80
2018-09-11T00:32:12.736Z,2.83
2018-09-11T00:34:41.296Z,2.63
2018-09-11T00:37:10.076Z,2.83
2018-09-11T00:39:38.591Z,2.37
2018-09-11T00:42:20.163Z,2.80
2018-09-11T00:44:48.922Z,2.50
2018-09-11T00:47:17.860Z,2.40
2018-09-11T00:49:46.340Z,2.70
2018-09-11T00:52:15.772Z,2.43
2018-09-11T00:54:44.247Z,2.20
2018-09-11T00:57:19.680Z,2.40
2018-09-11T00:59:48.196Z,2.43
2018-09-11T01:02:29.641Z,2.20
2018-09-11T01:04:58.127Z,2.20
2018-09-11T01:07:27.092Z,2.43
2018-09-11T01:09:55.996Z,2.40
2018-09-11T01:12:25.588Z,2.00
2018-09-11T01:14:54.097Z,2.43
2018-09-11T01:17:34.987Z,2.50
2018-09-11T01:20:03.576Z,2.27
2018-09-11T01:22:32.065Z,2.00
2018-09-11T01:25:00.546Z,2.47
2018-09-11T01:27:32.425Z,2.80
2018-09-11T01:30:01.223Z,2.30
2018-09-11T01:32:34.735Z,2.90
2018-09-11T01:35:03.356Z,2.40
2018-09-11T01:37:46.947Z,2.87
2018-09-11T01:40:15.469Z,2.10
2018-09-11T01:42:44.256Z,2.73
2018-09-11T01:45:12.751Z,2.80
2018-09-11T01:47:44.831Z,2.20
2018-09-11T01:50:13.331Z,2.30
2018-09-11T01:52:45.736Z,2.73
2018-09-11T01:55:14.532Z,2.40
2018-09-11T01:57:55.252Z,2.70
2018-09-11T02:00:24.503Z,2.07
2018-09-11T02:02:53.478Z,2.37
2018-09-11T02:05:22.738Z,2.37
2018-09-11T02:07:53.459Z,2.27
2018-09-11T02:12:57.223Z,2.27
2018-09-11T02:15:26.068Z,2.30
2018-09-11T02:17:59.393Z,2.30
2018-09-11T02:20:28.366Z,2.00
2018-09-11T02:23:09.686Z,2.20
2018-09-11T02:25:38.371Z,2.20
2018-09-11T02:28:07.361Z,2.20
2018-09-11T02:30:35.831Z,1.97
2018-09-11T02:33:16.697Z,1.97
2018-09-11T02:35:45.624Z,2.30
2018-09-11T02:38:14.539Z,2.03
2018-09-11T02:40:43.045Z,1.90
2018-09-11T02:43:14.265Z,2.00
2018-09-11T02:45:43.476Z,2.03
2018-09-11T02:52:53.818Z,1.63
2018-09-11T02:55:22.657Z,2.00
2018-09-11T02:57:51.175Z,1.60
2018-09-11T03:02:41.928Z,1.60
2018-09-11T03:05:10.423Z,1.90
2018-09-11T03:07:39.332Z,1.73
2018-09-11T03:10:08.167Z,1.60
2018-09-11T03:12:36.707Z,1.93
2018-09-11T03:15:05.209Z,2.37
2018-09-11T03:17:34.123Z,2.40
2018-09-11T03:20:03.089Z,1.80
2018-09-11T03:22:33.424Z,1.80
2018-09-11T03:25:03.151Z,1.70
2018-09-11T03:27:34.800Z,1.90
2018-09-11T03:30:03.923Z,2.03
2018-09-11T03:32:37.484Z,1.70
2018-09-11T03:35:06.292Z,1.70
2018-09-11T03:37:52.388Z,1.80
2018-09-11T03:40:21.287Z,1.67
2018-09-11T03:42:50.400Z,1.53
2018-09-11T03:45:19.072Z,1.73
2018-09-11T03:47:47.799Z,1.60
2018-09-11T03:50:16.746Z,1.50
2018-09-11T03:52:49.127Z,1.70
2018-09-11T03:55:17.880Z,1.80
2018-09-11T03:57:59.724Z,1.50
2018-09-11T04:00:28.668Z,1.43
2018-09-11T04:02:57.158Z,1.57
2018-09-11T04:05:25.667Z,1.50
2018-09-11T04:07:56.675Z,1.40
2018-09-11T04:10:25.129Z,1.50
2018-09-11T04:12:59.458Z,1.50
2018-09-11T04:15:28.250Z,1.40
2018-09-11T04:18:05.483Z,1.23
2018-09-11T04:20:34.669Z,1.60
2018-09-11T04:23:06.928Z,1.50
2018-09-11T04:30:10.234Z,1.20
2018-09-11T04:32:39.404Z,2.00
2018-09-11T04:35:13.380Z,1.50
2018-09-11T04:37:42.288Z,1.50
2018-09-11T04:40:15.431Z,1.53
2018-09-11T04:42:43.947Z,1.30
2018-09-11T04:45:16.932Z,2.10
2018-09-11T04:47:45.709Z,1.43
2018-09-11T04:50:19.156Z,1.40
2018-09-11T04:52:47.632Z,1.20
2018-09-11T04:55:21.024Z,1.60
2018-09-11T04:57:49.923Z,2.60
2018-09-11T05:00:23.943Z,1.60
2018-09-11T05:02:53.126Z,1.33
2018-09-11T05:05:35.004Z,1.53
2018-09-11T05:08:03.948Z,2.10
2018-09-11T05:10:32.691Z,1.80
2018-09-11T05:13:01.720Z,1.50
2018-09-11T05:15:33.179Z,1.53
2018-09-11T05:18:01.700Z,1.57
2018-09-11T05:20:43.741Z,1.43
2018-09-11T05:23:12.539Z,1.60
2018-09-11T05:25:41.050Z,1.57
2018-09-11T05:28:10.023Z,1.57
2018-09-11T05:30:40.036Z,1.40
2018-09-11T05:33:09.043Z,1.70
2018-09-11T05:35:43.225Z,1.50
2018-09-11T05:38:12.135Z,1.70
2018-09-11T05:40:44.140Z,1.77
2018-09-11T05:43:13.145Z,2.03
2018-09-11T05:45:47.640Z,1.40
2018-09-11T05:48:16.203Z,1.83
2018-09-11T05:55:20.619Z,1.40
2018-09-11T05:58:01.906Z,1.47
2018-09-11T06:00:30.386Z,1.57
2018-09-11T06:02:59.196Z,1.37
2018-09-11T06:05:28.228Z,1.70
2018-09-11T06:08:00.657Z,1.60
2018-09-11T06:10:29.881Z,1.40
2018-09-11T06:13:02.435Z,1.23
2018-09-11T06:15:31.377Z,1.77
2018-09-11T06:18:04.564Z,1.40
2018-09-11T06:20:33.516Z,1.70
2018-09-11T06:23:14.647Z,1.37
2018-09-11T06:34:42.532Z,1.27
2018-09-11T06:37:15.596Z,1.60
2018-09-11T06:39:44.151Z,1.70
2018-09-11T06:42:18.037Z,1.37
2018-09-11T06:44:47.220Z,1.30
2018-09-11T06:47:20.820Z,1.60
2018-09-11T06:49:49.543Z,1.30
2018-09-11T06:52:23.632Z,1.20
2018-09-11T06:54:52.402Z,1.67
2018-09-11T06:57:33.996Z,1.20
2018-09-11T07:00:02.792Z,1.20
2018-09-11T07:02:31.280Z,1.10
2018-09-11T07:05:00.218Z,1.00
2018-09-11T07:07:31.009Z,1.17
2018-09-11T07:09:59.972Z,1.17
2018-09-11T07:12:41.244Z,1.20
2018-09-11T07:15:10.016Z,1.10
2018-09-11T07:17:38.923Z,1.13
2018-09-11T07:20:07.744Z,0.90
2018-09-11T07:22:38.372Z,1.30
2018-09-11T07:25:07.468Z,1.23
2018-09-11T07:27:48.849Z,1.27
2018-09-11T07:30:17.618Z,0.87
2018-09-11T07:32:46.547Z,1.13
2018-09-11T07:35:15.500Z,1.10
2018-09-11T07:42:25.761Z,1.00
2018-09-11T07:44:54.981Z,1.00
2018-09-11T07:47:23.912Z,1.47
2018-09-11T07:49:53.679Z,1.47
2018-09-11T07:52:22.500Z,1.10
2018-09-11T07:54:55.943Z,1.33
2018-09-11T07:57:25.255Z,1.27
2018-09-11T07:59:58.715Z,1.57
2018-09-11T08:02:27.663Z,1.33
2018-09-11T08:05:02.139Z,1.43
2018-09-11T08:07:31.483Z,1.40
2018-09-11T08:10:04.494Z,1.70
2018-09-11T08:12:32.983Z,1.50
2018-09-11T08:15:07.184Z,1.23
2018-09-11T08:17:36.101Z,1.33
2018-09-11T08:20:11.917Z,1.67
2018-09-11T08:22:40.463Z,1.67
2018-09-11T08:25:14.724Z,1.50
2018-09-11T08:27:43.359Z,1.50
2018-09-11T08:30:21.199Z,1.90
2018-09-11T08:32:50.115Z,1.50
2018-09-11T08:35:19.765Z,1.70
2018-09-11T08:37:48.728Z,1.60
2018-09-11T08:40:30.200Z,1.50
2018-09-11T08:42:59.026Z,1.90
2018-09-11T08:45:27.608Z,1.60
2018-09-11T08:47:56.104Z,2.43
2018-09-11T08:50:27.951Z,1.77
2018-09-11T08:52:57.069Z,1.80
2018-09-11T08:55:27.828Z,1.47
2018-09-11T08:57:56.748Z,1.75
2018-09-11T09:00:29.809Z,1.80
2018-09-11T09:02:58.764Z,2.00
2018-09-11T09:05:31.969Z,1.70
2018-09-11T09:08:00.929Z,1.67
2018-09-11T09:10:34.572Z,1.60
2018-09-11T09:13:03.508Z,1.70
2018-09-11T09:15:37.146Z,1.87
2018-09-11T09:18:05.814Z,2.07
2018-09-11T09:20:39.284Z,1.90
2018-09-11T09:23:08.204Z,2.30
2018-09-11T09:25:41.296Z,1.93
2018-09-11T09:28:10.270Z,2.10
2018-09-11T09:30:43.434Z,2.00
2018-09-11T09:33:12.420Z,2.10
2018-09-11T09:35:45.740Z,1.80
2018-09-11T09:38:14.984Z,1.83
2018-09-11T09:43:17.379Z,1.80
2018-09-11T09:45:50.941Z,2.00
2018-09-11T09:48:19.959Z,2.00
2018-09-11T09:50:48.446Z,2.13
2018-09-11T09:53:17.760Z,2.23
2018-09-11T09:55:46.716Z,1.80
2018-09-11T09:58:15.196Z,1.83
2018-09-11T10:00:49.340Z,1.90
2018-09-11T10:03:18.266Z,2.20
2018-09-11T10:05:47.216Z,1.80
2018-09-11T10:08:16.168Z,2.03
2018-09-11T10:10:44.632Z,2.20
2018-09-11T10:13:14.037Z,1.80
2018-09-11T10:15:42.549Z,1.70
2018-09-11T10:18:14.104Z,1.80
2018-09-11T10:20:43.174Z,1.83
2018-09-11T10:23:15.375Z,2.03
2018-09-11T10:25:45.019Z,2.13
2018-09-11T10:28:26.999Z,2.00
2018-09-11T10:30:56.193Z,1.90
2018-09-11T10:33:25.164Z,2.50
2018-09-11T10:35:53.955Z,1.90
2018-09-11T10:38:24.031Z,2.20
2018-09-11T10:40:52.944Z,1.77
2018-09-11T10:43:34.867Z,2.17
2018-09-11T10:46:03.354Z,1.90
2018-09-11T10:48:32.496Z,1.83
2018-09-11T10:51:01.845Z,1.93
2018-09-11T10:53:31.164Z,2.00
2018-09-11T10:56:00.124Z,2.30
2018-09-11T10:58:33.276Z,2.10
2018-09-11T11:01:01.912Z,2.00
2018-09-11T11:03:43.835Z,2.10
2018-09-11T11:06:12.615Z,1.90
2018-09-11T11:08:41.561Z,2.00
2018-09-11T11:11:10.495Z,2.07
2018-09-11T11:13:40.745Z,1.80
2018-09-11T11:16:09.619Z,2.00
2018-09-11T11:18:51.845Z,1.90
2018-09-11T11:21:21.263Z,1.90
2018-09-11T11:23:49.862Z,2.07
2018-09-11T11:26:18.409Z,2.10
2018-09-11T11:28:49.224Z,2.00
2018-09-11T11:31:18.193Z,2.20
2018-09-11T11:33:59.772Z,2.20
2018-09-11T11:36:28.701Z,2.20
2018-09-11T11:38:57.223Z,3.03
2018-09-11T11:41:25.864Z,2.33
2018-09-11T11:43:57.518Z,2.00
2018-09-11T11:46:26.063Z,2.30
2018-09-11T11:49:07.933Z,2.10
2018-09-11T11:51:36.887Z,2.00
2018-09-11T11:54:05.406Z,2.63
2018-09-11T11:56:34.340Z,2.13
2018-09-11T11:59:05.367Z,2.50
2018-09-11T12:06:35.822Z,2.10
2018-09-11T12:09:14.589Z,2.40
2018-09-11T12:11:43.585Z,2.33
2018-09-11T12:14:15.732Z,1.97
2018-09-11T12:16:44.219Z,2.10
2018-09-11T12:19:17.518Z,2.03
2018-09-11T12:21:45.991Z,1.90
2018-09-11T12:24:20.045Z,2.10
2018-09-11T12:26:48.844Z,2.03
2018-09-11T12:29:30.819Z,2.40
2018-09-11T12:31:59.343Z,2.23
2018-09-11T12:34:28.609Z,2.60
2018-09-11T12:36:57.070Z,2.23
2018-09-11T12:39:27.334Z,2.30
2018-09-11T12:41:56.529Z,2.10
2018-09-11T12:44:28.508Z,2.47
2018-09-11T12:46:57.208Z,2.67
2018-09-11T12:49:31.691Z,2.00
2018-09-11T12:52:00.639Z,2.40
2018-09-11T12:54:42.398Z,2.30
2018-09-11T12:57:11.582Z,2.07
2018-09-11T12:59:40.488Z,2.22
2018-09-11T13:02:09.520Z,2.10
2018-09-11T13:04:38.281Z,2.33
2018-09-11T13:07:07.221Z,2.45
2018-09-11T13:09:41.548Z,2.30
2018-09-11T13:12:10.754Z,2.42
2018-09-11T13:14:52.833Z,2.15
2018-09-11T13:17:22.101Z,2.17
2018-09-11T13:19:50.602Z,2.33
2018-09-11T13:22:19.159Z,2.00
2018-09-11T13:25:00.835Z,2.40
2018-09-11T13:27:29.358Z,2.42
2018-09-11T13:29:58.328Z,2.15
2018-09-11T13:32:27.260Z,2.07
2018-09-11T13:34:57.169Z,2.10
2018-09-11T13:37:25.935Z,2.40
2018-09-11T13:39:59.738Z,2.15
2018-09-11T13:42:29.302Z,2.12
2018-09-11T13:45:03.243Z,2.30
2018-09-11T13:47:32.262Z,2.45
2018-09-11T13:50:05.414Z,2.65
2018-09-11T13:52:34.638Z,2.45
2018-09-11T13:55:08.956Z,2.20
2018-09-11T13:57:37.476Z,2.35
2018-09-11T14:00:11.099Z,2.27
2018-09-11T14:02:40.310Z,2.12
2018-09-11T14:05:13.641Z,2.45
2018-09-11T14:07:42.099Z,2.37
2018-09-11T14:10:15.076Z,2.20
2018-09-11T14:12:44.262Z,2.50
2018-09-11T14:15:19.364Z,2.35
2018-09-11T14:17:48.352Z,2.65
2018-09-11T14:20:29.179Z,2.10
2018-09-11T14:22:58.094Z,2.10
2018-09-11T14:25:27.488Z,2.58
2018-09-11T14:27:55.978Z,2.50
2018-09-11T14:30:27.648Z,2.40
2018-09-11T14:32:56.585Z,2.35
2018-09-11T14:35:29.013Z,2.55
2018-09-11T14:37:58.280Z,3.00
2018-09-11T14:40:33.957Z,2.37
2018-09-11T14:43:02.904Z,2.70
2018-09-11T14:45:34.856Z,2.30
2018-09-11T14:48:03.340Z,2.90
2018-09-11T14:50:38.148Z,2.50
2018-09-11T14:53:07.101Z,2.30
2018-09-11T14:55:38.649Z,2.35
2018-09-11T14:58:07.260Z,2.37
2018-09-11T15:00:40.737Z,2.40
2018-09-11T15:03:09.230Z,2.00
2018-09-11T15:05:42.584Z,2.40
2018-09-11T15:08:11.432Z,2.17
2018-09-11T15:10:45.187Z,3.27
2018-09-11T15:13:13.674Z,2.60
2018-09-11T15:15:48.175Z,2.72
2018-09-11T15:18:17.236Z,2.65
2018-09-11T15:20:50.832Z,2.80
2018-09-11T15:23:19.805Z,2.35
2018-09-11T15:25:53.605Z,2.80
2018-09-11T15:28:22.389Z,1.98
2018-09-11T15:30:56.352Z,2.30
2018-09-11T15:33:24.880Z,2.62
2018-09-11T15:35:56.960Z,2.57
2018-09-11T15:38:26.791Z,2.33
2018-09-11T15:40:55.761Z,3.00
2018-09-11T15:43:24.976Z,2.20
2018-09-11T15:45:53.452Z,2.20
2018-09-11T15:48:22.381Z,2.87
2018-09-11T15:50:51.179Z,2.20
2018-09-11T15:53:19.745Z,2.20
2018-09-11T15:55:48.301Z,2.30
2018-09-11T15:58:17.516Z,2.20
2018-09-11T16:00:46.066Z,1.90
2018-09-11T16:03:18.910Z,2.35
2018-09-11T16:05:48.216Z,2.30
2018-09-11T16:08:20.516Z,2.23
2018-09-11T16:10:49.039Z,2.43
2018-09-11T16:13:30.177Z,2.00
2018-09-11T16:15:58.723Z,2.47
2018-09-11T16:18:27.729Z,2.58
2018-09-11T16:20:56.697Z,2.05
2018-09-11T16:23:25.652Z,2.47
2018-09-11T16:25:54.561Z,2.30
2018-09-11T16:28:28.208Z,2.63
2018-09-11T16:30:57.125Z,2.40
2018-09-11T16:33:39.284Z,2.30
2018-09-11T16:36:07.803Z,2.63
2018-09-11T16:38:36.760Z,2.33
2018-09-11T16:41:05.707Z,2.50
2018-09-11T16:43:36.115Z,2.08
2018-09-11T16:46:05.084Z,2.00
2018-09-11T16:48:39.519Z,2.13
2018-09-11T16:51:08.432Z,2.37
2018-09-11T16:53:49.647Z,2.50
2018-09-11T16:56:18.565Z,2.57
2018-09-11T16:58:47.291Z,2.30
2018-09-11T17:01:16.374Z,2.33
2018-09-11T17:03:48.981Z,2.40
2018-09-11T17:06:18.318Z,2.45
2018-09-11T17:08:59.668Z,2.47
2018-09-11T17:11:29.125Z,2.20
2018-09-11T17:13:57.623Z,2.10
2018-09-11T17:16:26.601Z,2.60
2018-09-11T17:18:55.643Z,1.83
2018-09-11T17:21:24.261Z,2.03
2018-09-11T17:23:58.088Z,2.07
2018-09-11T17:26:27.042Z,2.20
2018-09-11T17:28:59.651Z,2.37
2018-09-11T17:31:28.944Z,2.20
2018-09-11T17:34:02.294Z,3.63
2018-09-11T17:36:31.233Z,2.00
2018-09-11T17:39:00.165Z,2.23
2018-09-11T17:41:29.172Z,1.77
2018-09-11T17:43:57.664Z,2.00
2018-09-11T17:46:26.447Z,2.47
2018-09-11T17:51:34.184Z,1.97
2018-09-11T17:54:03.816Z,2.40
2018-09-11T17:56:32.416Z,2.13
2018-09-11T17:59:01.752Z,2.43
2018-09-11T18:01:30.351Z,1.90
2018-09-11T18:03:59.127Z,2.63
2018-09-11T18:06:28.068Z,2.10
2018-09-11T18:08:56.882Z,2.20
2018-09-11T18:11:26.749Z,2.50
2018-09-11T18:13:56.097Z,2.33
2018-09-11T18:16:28.995Z,2.67
2018-09-11T18:18:57.951Z,2.30
2018-09-11T18:21:39.716Z,2.20
2018-09-11T18:24:08.200Z,2.33
2018-09-11T18:26:37.449Z,2.40
2018-09-11T18:29:06.414Z,2.60
2018-09-11T18:31:34.981Z,2.50
2018-09-11T18:34:04.409Z,2.67
2018-09-11T18:36:38.397Z,2.47
2018-09-11T18:39:07.380Z,2.40
2018-09-11T18:41:48.112Z,2.30
2018-09-11T18:44:17.364Z,2.50
2018-09-11T18:46:46.071Z,2.60
2018-09-11T18:49:14.574Z,2.60
2018-09-11T18:51:46.753Z,2.17
2018-09-11T18:54:15.260Z,2.50
2018-09-11T18:56:48.917Z,2.57
2018-09-11T18:59:17.859Z,2.40
2018-09-11T19:01:51.185Z,2.67
2018-09-11T19:04:19.698Z,2.90
2018-09-11T19:06:53.740Z,3.07
2018-09-11T19:09:22.636Z,2.43
2018-09-11T19:11:56.028Z,2.40
2018-09-11T19:14:24.907Z,2.73
2018-09-11T19:16:58.312Z,2.50
2018-09-11T19:19:27.298Z,3.17
2018-09-11T19:22:01.004Z,2.67
2018-09-11T19:24:29.924Z,8.10
2018-09-11T19:27:03.183Z,3.03
2018-09-11T19:29:33.296Z,2.50
2018-09-11T19:34:36.288Z,2.57
2018-09-11T19:37:09.417Z,2.37
2018-09-11T19:39:38.436Z,2.57
2018-09-11T19:42:06.924Z,2.10
2018-09-11T19:44:36.138Z,2.67
2018-09-11T19:47:05.095Z,2.80
2018-09-11T19:49:34.000Z,2.80
2018-09-11T19:52:03.236Z,2.37
2018-09-11T19:54:31.743Z,2.70
2018-09-11T19:57:00.668Z,2.33
2018-09-11T20:02:04.516Z,2.30
2018-09-11T20:04:33.063Z,2.63
2018-09-11T20:07:01.960Z,2.70
2018-09-11T20:09:30.456Z,2.50
2018-09-11T20:11:58.911Z,2.80
2018-09-11T20:14:31.834Z,2.83
2018-09-11T20:17:00.403Z,2.60
2018-09-11T20:19:32.941Z,2.83
2018-09-11T20:22:01.896Z,2.27
2018-09-11T20:24:34.980Z,2.33
2018-09-11T20:27:03.419Z,2.33
2018-09-11T20:29:37.245Z,2.50
2018-09-11T20:32:05.728Z,2.03
2018-09-11T20:34:39.581Z,2.77
2018-09-11T20:37:08.339Z,2.10
2018-09-11T20:39:37.715Z,2.90
2018-09-11T20:42:07.055Z,2.50
2018-09-11T20:44:35.940Z,2.57
2018-09-11T20:47:04.423Z,2.23
2018-09-11T20:49:33.346Z,2.00
2018-09-11T20:52:03.748Z,2.13
2018-09-11T20:54:32.733Z,2.23
2018-09-11T20:57:01.197Z,2.43
2018-09-11T20:59:30.537Z,2.37
2018-09-11T21:01:59.109Z,2.77
2018-09-11T21:04:27.592Z,2.30
2018-09-11T21:07:00.424Z,2.43
2018-09-11T21:09:28.916Z,2.90
2018-09-11T21:12:02.286Z,2.17
2018-09-11T21:14:31.144Z,2.23
2018-09-11T21:17:04.430Z,2.93
2018-09-11T21:19:32.995Z,2.53
2018-09-11T21:22:02.434Z,2.60
2018-09-11T21:24:31.689Z,2.30
2018-09-11T21:27:00.703Z,2.40
2018-09-11T21:29:29.585Z,2.77
2018-09-11T21:31:58.502Z,2.50
2018-09-11T21:34:27.594Z,2.67
2018-09-11T21:36:56.447Z,2.30
2018-09-11T21:39:25.372Z,2.30
2018-09-11T21:41:54.291Z,2.60
2018-09-11T21:44:23.113Z,2.20
2018-09-11T21:46:51.576Z,2.30
2018-09-11T21:49:24.247Z,2.47
2018-09-11T21:51:53.707Z,2.40
2018-09-11T21:54:25.690Z,2.60
2018-09-11T21:56:54.208Z,2.17
2018-09-11T21:59:35.095Z,2.27
2018-09-11T22:02:04.036Z,2.30
2018-09-11T22:04:33.507Z,2.63
2018-09-11T22:07:02.416Z,2.37
2018-09-11T22:09:32.334Z,2.17
2018-09-11T22:12:01.497Z,2.70
2018-09-11T22:14:34.716Z,2.33
2018-09-11T22:17:03.469Z,2.77
2018-09-11T22:19:37.088Z,2.70
2018-09-11T22:22:06.097Z,2.30
2018-09-11T22:24:38.839Z,2.37
2018-09-11T22:27:08.181Z,2.63
2018-09-11T22:29:41.741Z,2.87
2018-09-11T22:32:10.193Z,2.70
2018-09-11T22:34:43.272Z,2.57
2018-09-11T22:37:12.210Z,2.30
2018-09-11T22:39:45.340Z,2.60
2018-09-11T22:42:14.631Z,2.53
2018-09-11T22:47:18.745Z,2.60
2018-09-11T22:49:59.619Z,2.57
2018-09-11T22:52:28.998Z,2.40
2018-09-11T22:54:57.905Z,2.50
2018-09-11T22:57:26.387Z,2.80
2018-09-11T23:00:07.781Z,2.30
2018-09-11T23:02:36.684Z,3.07
2018-09-11T23:05:05.876Z,2.90
2018-09-11T23:07:34.820Z,2.47
2018-09-11T23:10:04.296Z,3.23
2018-09-11T23:12:33.119Z,2.90
2018-09-11T23:15:07.025Z,2.83
2018-09-11T23:17:35.986Z,2.70
2018-09-11T23:20:09.407Z,2.50
2018-09-11T23:22:38.356Z,2.67
2018-09-11T23:25:11.203Z,2.80
2018-09-11T23:27:39.985Z,3.10
2018-09-11T23:30:08.464Z,2.70
2018-09-11T23:32:37.371Z,2.67
2018-09-11T23:35:06.852Z,2.70
2018-09-11T23:37:35.303Z,2.70
2018-09-11T23:40:04.211Z,2.77
2018-09-11T23:42:33.445Z,2.67
2018-09-11T23:45:02.365Z,2.87
2018-09-11T23:47:31.280Z,3.03
2018-09-11T23:50:00.621Z,2.90
2018-09-11T23:52:29.099Z,2.80
2018-09-11T23:54:57.548Z,2.60
2018-09-11T23:57:30.492Z,2.97
2018-09-11T23:59:59.391Z,2.53
